sensor_id;sensor_type;location;lat;lon;timestamp;P1;durP1;ratioP1;P2;durP2;ratioP2
9559;SDS011;4818;50.860;4.648;2024-03-07T00:01:03;4.57;;;1.73;;
9559;SDS011;4818;50.860;4.648;2024-03-07T00:03:30;7.57;;;2.47;;
9559;SDS011;4818;50.860;4.648;2024-03-07T00:06:01;6.05;;;2.33;;
9559;SDS011;4818;50.860;4.648;2024-03-07T00:08:28;4.05;;;1.25;;
9559;SDS011;4818;50.860;4.648;2024-03-07T00:10:55;3.35;;;1.45;;
9559;SDS011;4818;50.860;4.648;2024-03-07T00:13:22;6.75;;;1.05;;
9559;SDS011;4818;50.860;4.648;2024-03-07T00:15:48;3.47;;;1.35;;
9559;SDS011;4818;50.860;4.648;2024-03-07T00:18:14;4.93;;;1.48;;
9559;SDS011;4818;50.860;4.648;2024-03-07T00:20:40;4.32;;;1.60;;
9559;SDS011;4818;50.860;4.648;2024-03-07T00:23:07;10.23;;;3.15;;
9559;SDS011;4818;50.860;4.648;2024-03-07T00:25:34;7.85;;;2.58;;
9559;SDS011;4818;50.860;4.648;2024-03-07T00:28:01;8.13;;;2.55;;
9559;SDS011;4818;50.860;4.648;2024-03-07T00:30:28;8.10;;;2.10;;
9559;SDS011;4818;50.860;4.648;2024-03-07T00:32:55;6.63;;;2.88;;
9559;SDS011;4818;50.860;4.648;2024-03-07T00:35:21;7.28;;;2.03;;
9559;SDS011;4818;50.860;4.648;2024-03-07T00:37:48;7.00;;;3.42;;
9559;SDS011;4818;50.860;4.648;2024-03-07T00:40:14;9.63;;;3.30;;
9559;SDS011;4818;50.860;4.648;2024-03-07T00:42:40;7.95;;;2.88;;
9559;SDS011;4818;50.860;4.648;2024-03-07T00:45:06;7.97;;;3.38;;
9559;SDS011;4818;50.860;4.648;2024-03-07T00:47:32;8.27;;;3.70;;
9559;SDS011;4818;50.860;4.648;2024-03-07T00:49:59;11.23;;;4.00;;
9559;SDS011;4818;50.860;4.648;2024-03-07T00:52:25;12.68;;;4.65;;
9559;SDS011;4818;50.860;4.648;2024-03-07T00:54:51;13.20;;;4.13;;
9559;SDS011;4818;50.860;4.648;2024-03-07T00:57:17;11.63;;;4.20;;
9559;SDS011;4818;50.860;4.648;2024-03-07T00:59:44;12.43;;;3.70;;
9559;SDS011;4818;50.860;4.648;2024-03-07T01:02:10;14.10;;;4.45;;
9559;SDS011;4818;50.860;4.648;2024-03-07T01:04:36;14.35;;;4.60;;
9559;SDS011;4818;50.860;4.648;2024-03-07T01:07:03;13.38;;;4.20;;
9559;SDS011;4818;50.860;4.648;2024-03-07T01:09:29;16.30;;;5.15;;
9559;SDS011;4818;50.860;4.648;2024-03-07T01:11:55;19.35;;;5.50;;
9559;SDS011;4818;50.860;4.648;2024-03-07T01:14:22;12.25;;;4.32;;
9559;SDS011;4818;50.860;4.648;2024-03-07T01:16:48;16.10;;;4.63;;
9559;SDS011;4818;50.860;4.648;2024-03-07T01:19:15;11.32;;;4.25;;
9559;SDS011;4818;50.860;4.648;2024-03-07T01:21:41;13.82;;;4.70;;
9559;SDS011;4818;50.860;4.648;2024-03-07T01:24:07;13.25;;;5.28;;
9559;SDS011;4818;50.860;4.648;2024-03-07T01:26:34;15.60;;;5.10;;
9559;SDS011;4818;50.860;4.648;2024-03-07T01:29:00;13.27;;;3.50;;
9559;SDS011;4818;50.860;4.648;2024-03-07T01:31:26;11.27;;;4.88;;
9559;SDS011;4818;50.860;4.648;2024-03-07T01:33:53;15.88;;;3.95;;
9559;SDS011;4818;50.860;4.648;2024-03-07T01:36:20;16.27;;;5.22;;
9559;SDS011;4818;50.860;4.648;2024-03-07T01:38:46;13.15;;;3.88;;
9559;SDS011;4818;50.860;4.648;2024-03-07T01:41:13;17.52;;;4.80;;
9559;SDS011;4818;50.860;4.648;2024-03-07T01:43:39;15.20;;;4.03;;
9559;SDS011;4818;50.860;4.648;2024-03-07T01:46:07;10.15;;;4.35;;
9559;SDS011;4818;50.860;4.648;2024-03-07T01:48:33;14.10;;;4.15;;
9559;SDS011;4818;50.860;4.648;2024-03-07T01:51:00;8.75;;;3.30;;
9559;SDS011;4818;50.860;4.648;2024-03-07T01:53:28;12.95;;;4.40;;
9559;SDS011;4818;50.860;4.648;2024-03-07T01:55:56;13.68;;;3.45;;
9559;SDS011;4818;50.860;4.648;2024-03-07T01:58:22;11.70;;;4.13;;
9559;SDS011;4818;50.860;4.648;2024-03-07T02:00:50;11.55;;;3.65;;
9559;SDS011;4818;50.860;4.648;2024-03-07T02:03:16;12.93;;;4.32;;
9559;SDS011;4818;50.860;4.648;2024-03-07T02:05:43;15.18;;;5.18;;
9559;SDS011;4818;50.860;4.648;2024-03-07T02:08:10;18.15;;;5.10;;
9559;SDS011;4818;50.860;4.648;2024-03-07T02:10:36;10.73;;;4.13;;
9559;SDS011;4818;50.860;4.648;2024-03-07T02:13:03;11.48;;;4.75;;
9559;SDS011;4818;50.860;4.648;2024-03-07T02:15:29;10.85;;;3.60;;
9559;SDS011;4818;50.860;4.648;2024-03-07T02:17:55;13.55;;;5.15;;
9559;SDS011;4818;50.860;4.648;2024-03-07T02:20:22;12.45;;;5.65;;
9559;SDS011;4818;50.860;4.648;2024-03-07T02:22:50;14.55;;;5.15;;
9559;SDS011;4818;50.860;4.648;2024-03-07T02:25:17;15.73;;;5.25;;
9559;SDS011;4818;50.860;4.648;2024-03-07T02:27:43;11.82;;;4.90;;
9559;SDS011;4818;50.860;4.648;2024-03-07T02:30:11;13.40;;;5.45;;
9559;SDS011;4818;50.860;4.648;2024-03-07T02:32:37;16.17;;;6.03;;
9559;SDS011;4818;50.860;4.648;2024-03-07T02:35:04;12.23;;;5.43;;
9559;SDS011;4818;50.860;4.648;2024-03-07T02:37:31;17.00;;;5.22;;
9559;SDS011;4818;50.860;4.648;2024-03-07T02:39:57;12.45;;;5.47;;
9559;SDS011;4818;50.860;4.648;2024-03-07T02:42:23;13.65;;;5.72;;
9559;SDS011;4818;50.860;4.648;2024-03-07T02:44:50;13.35;;;5.32;;
9559;SDS011;4818;50.860;4.648;2024-03-07T02:47:18;15.80;;;5.97;;
9559;SDS011;4818;50.860;4.648;2024-03-07T02:49:44;16.00;;;6.13;;
9559;SDS011;4818;50.860;4.648;2024-03-07T02:52:10;19.10;;;5.70;;
9559;SDS011;4818;50.860;4.648;2024-03-07T02:54:37;14.25;;;6.55;;
9559;SDS011;4818;50.860;4.648;2024-03-07T02:57:03;16.52;;;5.72;;
9559;SDS011;4818;50.860;4.648;2024-03-07T02:59:30;13.32;;;5.00;;
9559;SDS011;4818;50.860;4.648;2024-03-07T03:01:57;13.32;;;5.55;;
9559;SDS011;4818;50.860;4.648;2024-03-07T03:04:23;19.15;;;6.63;;
9559;SDS011;4818;50.860;4.648;2024-03-07T03:06:50;16.88;;;4.63;;
9559;SDS011;4818;50.860;4.648;2024-03-07T03:09:16;14.25;;;5.13;;
9559;SDS011;4818;50.860;4.648;2024-03-07T03:11:43;14.27;;;3.65;;
9559;SDS011;4818;50.860;4.648;2024-03-07T03:14:09;20.48;;;4.95;;
9559;SDS011;4818;50.860;4.648;2024-03-07T03:16:36;19.95;;;5.95;;
9559;SDS011;4818;50.860;4.648;2024-03-07T03:19:02;14.75;;;4.90;;
9559;SDS011;4818;50.860;4.648;2024-03-07T03:21:29;14.70;;;4.93;;
9559;SDS011;4818;50.860;4.648;2024-03-07T03:23:55;17.65;;;6.40;;
9559;SDS011;4818;50.860;4.648;2024-03-07T03:26:21;13.90;;;6.03;;
9559;SDS011;4818;50.860;4.648;2024-03-07T03:28:47;12.75;;;5.78;;
9559;SDS011;4818;50.860;4.648;2024-03-07T03:31:13;13.27;;;5.00;;
9559;SDS011;4818;50.860;4.648;2024-03-07T03:33:39;21.75;;;6.28;;
9559;SDS011;4818;50.860;4.648;2024-03-07T03:36:06;17.95;;;5.28;;
9559;SDS011;4818;50.860;4.648;2024-03-07T03:38:32;22.33;;;5.70;;
9559;SDS011;4818;50.860;4.648;2024-03-07T03:40:59;14.23;;;4.95;;
9559;SDS011;4818;50.860;4.648;2024-03-07T03:43:25;15.88;;;5.53;;
9559;SDS011;4818;50.860;4.648;2024-03-07T03:45:51;18.10;;;6.40;;
9559;SDS011;4818;50.860;4.648;2024-03-07T03:48:17;19.08;;;7.07;;
9559;SDS011;4818;50.860;4.648;2024-03-07T03:50:44;21.73;;;5.55;;
9559;SDS011;4818;50.860;4.648;2024-03-07T03:53:11;19.52;;;5.85;;
9559;SDS011;4818;50.860;4.648;2024-03-07T03:55:39;17.88;;;6.55;;
9559;SDS011;4818;50.860;4.648;2024-03-07T03:58:05;23.48;;;6.85;;
9559;SDS011;4818;50.860;4.648;2024-03-07T04:00:31;23.67;;;6.93;;
9559;SDS011;4818;50.860;4.648;2024-03-07T04:02:57;22.42;;;6.93;;
9559;SDS011;4818;50.860;4.648;2024-03-07T04:05:25;17.00;;;5.97;;
9559;SDS011;4818;50.860;4.648;2024-03-07T04:07:51;26.02;;;6.75;;
9559;SDS011;4818;50.860;4.648;2024-03-07T04:10:17;16.98;;;5.32;;
9559;SDS011;4818;50.860;4.648;2024-03-07T04:12:44;18.80;;;5.35;;
9559;SDS011;4818;50.860;4.648;2024-03-07T04:15:11;16.23;;;5.85;;
9559;SDS011;4818;50.860;4.648;2024-03-07T04:17:38;19.70;;;7.50;;
9559;SDS011;4818;50.860;4.648;2024-03-07T04:20:05;25.60;;;6.20;;
9559;SDS011;4818;50.860;4.648;2024-03-07T04:22:35;26.80;;;7.45;;
9559;SDS011;4818;50.860;4.648;2024-03-07T04:25:05;28.85;;;7.28;;
9559;SDS011;4818;50.860;4.648;2024-03-07T04:27:32;19.08;;;5.47;;
9559;SDS011;4818;50.860;4.648;2024-03-07T04:30:02;22.02;;;5.70;;
9559;SDS011;4818;50.860;4.648;2024-03-07T04:32:28;17.52;;;6.47;;
9559;SDS011;4818;50.860;4.648;2024-03-07T04:34:55;19.65;;;6.35;;
9559;SDS011;4818;50.860;4.648;2024-03-07T04:37:25;21.02;;;6.32;;
9559;SDS011;4818;50.860;4.648;2024-03-07T04:39:52;24.83;;;6.65;;
9559;SDS011;4818;50.860;4.648;2024-03-07T04:42:18;13.60;;;5.28;;
9559;SDS011;4818;50.860;4.648;2024-03-07T04:44:44;21.02;;;7.15;;
9559;SDS011;4818;50.860;4.648;2024-03-07T04:47:10;23.77;;;6.82;;
9559;SDS011;4818;50.860;4.648;2024-03-07T04:49:37;16.77;;;6.93;;
9559;SDS011;4818;50.860;4.648;2024-03-07T04:52:03;21.73;;;6.75;;
9559;SDS011;4818;50.860;4.648;2024-03-07T04:54:30;16.15;;;6.90;;
9559;SDS011;4818;50.860;4.648;2024-03-07T04:56:59;20.88;;;6.68;;
9559;SDS011;4818;50.860;4.648;2024-03-07T04:59:25;16.70;;;5.65;;
9559;SDS011;4818;50.860;4.648;2024-03-07T05:01:51;21.95;;;7.85;;
9559;SDS011;4818;50.860;4.648;2024-03-07T05:04:17;21.33;;;7.18;;
9559;SDS011;4818;50.860;4.648;2024-03-07T05:06:44;20.45;;;7.93;;
9559;SDS011;4818;50.860;4.648;2024-03-07T05:09:13;21.45;;;7.80;;
9559;SDS011;4818;50.860;4.648;2024-03-07T05:11:50;19.15;;;7.30;;
9559;SDS011;4818;50.860;4.648;2024-03-07T05:14:17;22.02;;;6.60;;
9559;SDS011;4818;50.860;4.648;2024-03-07T05:16:43;19.98;;;7.15;;
9559;SDS011;4818;50.860;4.648;2024-03-07T05:19:09;13.88;;;6.00;;
9559;SDS011;4818;50.860;4.648;2024-03-07T05:21:35;24.95;;;7.75;;
9559;SDS011;4818;50.860;4.648;2024-03-07T05:24:07;26.10;;;8.68;;
9559;SDS011;4818;50.860;4.648;2024-03-07T05:26:34;18.25;;;6.47;;
9559;SDS011;4818;50.860;4.648;2024-03-07T05:29:09;14.15;;;4.97;;
9559;SDS011;4818;50.860;4.648;2024-03-07T05:31:36;27.65;;;7.85;;
9559;SDS011;4818;50.860;4.648;2024-03-07T05:34:03;27.80;;;6.97;;
9559;SDS011;4818;50.860;4.648;2024-03-07T05:36:33;19.77;;;6.30;;
9559;SDS011;4818;50.860;4.648;2024-03-07T05:38:59;21.45;;;6.55;;
9559;SDS011;4818;50.860;4.648;2024-03-07T05:41:28;19.88;;;6.75;;
9559;SDS011;4818;50.860;4.648;2024-03-07T05:43:55;25.17;;;9.18;;
9559;SDS011;4818;50.860;4.648;2024-03-07T05:46:21;23.10;;;6.15;;
9559;SDS011;4818;50.860;4.648;2024-03-07T05:48:47;23.33;;;6.82;;
9559;SDS011;4818;50.860;4.648;2024-03-07T05:51:17;23.33;;;6.47;;
9559;SDS011;4818;50.860;4.648;2024-03-07T05:53:43;20.70;;;6.70;;
9559;SDS011;4818;50.860;4.648;2024-03-07T05:56:09;30.38;;;7.85;;
9559;SDS011;4818;50.860;4.648;2024-03-07T05:58:35;26.70;;;9.02;;
9559;SDS011;4818;50.860;4.648;2024-03-07T06:01:01;22.17;;;6.97;;
9559;SDS011;4818;50.860;4.648;2024-03-07T06:03:27;20.20;;;8.38;;
9559;SDS011;4818;50.860;4.648;2024-03-07T06:05:53;23.40;;;8.32;;
9559;SDS011;4818;50.860;4.648;2024-03-07T06:08:20;26.30;;;9.40;;
9559;SDS011;4818;50.860;4.648;2024-03-07T06:10:46;33.85;;;10.45;;
9559;SDS011;4818;50.860;4.648;2024-03-07T06:13:13;23.42;;;9.88;;
9559;SDS011;4818;50.860;4.648;2024-03-07T06:15:42;29.20;;;9.68;;
9559;SDS011;4818;50.860;4.648;2024-03-07T06:18:09;23.03;;;8.37;;
9559;SDS011;4818;50.860;4.648;2024-03-07T06:20:42;33.47;;;10.70;;
9559;SDS011;4818;50.860;4.648;2024-03-07T06:23:09;24.60;;;9.02;;
9559;SDS011;4818;50.860;4.648;2024-03-07T06:25:41;31.92;;;9.90;;
9559;SDS011;4818;50.860;4.648;2024-03-07T06:28:19;26.23;;;8.65;;
9559;SDS011;4818;50.860;4.648;2024-03-07T06:30:46;35.40;;;12.10;;
9559;SDS011;4818;50.860;4.648;2024-03-07T06:33:12;28.25;;;11.45;;
9559;SDS011;4818;50.860;4.648;2024-03-07T06:35:42;25.90;;;9.52;;
9559;SDS011;4818;50.860;4.648;2024-03-07T06:38:09;23.52;;;7.95;;
9559;SDS011;4818;50.860;4.648;2024-03-07T06:40:35;32.92;;;8.70;;
9559;SDS011;4818;50.860;4.648;2024-03-07T06:43:02;28.58;;;7.75;;
9559;SDS011;4818;50.860;4.648;2024-03-07T06:45:37;24.17;;;9.02;;
9559;SDS011;4818;50.860;4.648;2024-03-07T06:48:04;33.25;;;11.05;;
9559;SDS011;4818;50.860;4.648;2024-03-07T06:50:36;30.02;;;9.30;;
9559;SDS011;4818;50.860;4.648;2024-03-07T06:55:28;27.00;;;8.60;;
9559;SDS011;4818;50.860;4.648;2024-03-07T06:57:54;38.92;;;11.18;;
9559;SDS011;4818;50.860;4.648;2024-03-07T07:00:21;27.23;;;8.13;;
9559;SDS011;4818;50.860;4.648;2024-03-07T07:02:47;23.30;;;10.65;;
9559;SDS011;4818;50.860;4.648;2024-03-07T07:05:18;25.60;;;7.90;;
9559;SDS011;4818;50.860;4.648;2024-03-07T07:07:44;32.00;;;10.13;;
9559;SDS011;4818;50.860;4.648;2024-03-07T07:10:10;23.17;;;8.75;;
9559;SDS011;4818;50.860;4.648;2024-03-07T07:12:46;29.02;;;7.95;;
9559;SDS011;4818;50.860;4.648;2024-03-07T07:15:20;24.52;;;7.68;;
9559;SDS011;4818;50.860;4.648;2024-03-07T07:17:46;22.50;;;8.35;;
9559;SDS011;4818;50.860;4.648;2024-03-07T07:20:14;30.63;;;8.85;;
9559;SDS011;4818;50.860;4.648;2024-03-07T07:22:41;33.00;;;8.48;;
9559;SDS011;4818;50.860;4.648;2024-03-07T07:25:08;26.92;;;10.15;;
9559;SDS011;4818;50.860;4.648;2024-03-07T07:27:42;25.25;;;7.72;;
9559;SDS011;4818;50.860;4.648;2024-03-07T07:30:09;28.98;;;8.70;;
9559;SDS011;4818;50.860;4.648;2024-03-07T07:32:36;35.50;;;10.18;;
9559;SDS011;4818;50.860;4.648;2024-03-07T07:35:02;31.95;;;10.32;;
9559;SDS011;4818;50.860;4.648;2024-03-07T07:37:28;29.23;;;9.73;;
9559;SDS011;4818;50.860;4.648;2024-03-07T07:39:54;33.97;;;9.35;;
9559;SDS011;4818;50.860;4.648;2024-03-07T07:42:20;24.45;;;9.35;;
9559;SDS011;4818;50.860;4.648;2024-03-07T07:44:46;31.20;;;10.40;;
9559;SDS011;4818;50.860;4.648;2024-03-07T07:47:13;32.22;;;8.18;;
9559;SDS011;4818;50.860;4.648;2024-03-07T07:49:39;25.10;;;8.13;;
9559;SDS011;4818;50.860;4.648;2024-03-07T07:52:06;24.63;;;9.55;;
9559;SDS011;4818;50.860;4.648;2024-03-07T07:54:34;31.58;;;9.57;;
9559;SDS011;4818;50.860;4.648;2024-03-07T07:57:00;22.95;;;8.57;;
9559;SDS011;4818;50.860;4.648;2024-03-07T07:59:26;32.38;;;8.05;;
9559;SDS011;4818;50.860;4.648;2024-03-07T08:01:53;29.52;;;8.77;;
9559;SDS011;4818;50.860;4.648;2024-03-07T08:04:20;20.60;;;7.43;;
9559;SDS011;4818;50.860;4.648;2024-03-07T08:06:46;33.63;;;10.95;;
9559;SDS011;4818;50.860;4.648;2024-03-07T08:09:12;28.10;;;10.43;;
9559;SDS011;4818;50.860;4.648;2024-03-07T08:11:42;31.65;;;9.65;;
9559;SDS011;4818;50.860;4.648;2024-03-07T08:14:08;27.63;;;8.52;;
9559;SDS011;4818;50.860;4.648;2024-03-07T08:16:34;27.98;;;10.38;;
9559;SDS011;4818;50.860;4.648;2024-03-07T08:19:00;24.17;;;10.02;;
9559;SDS011;4818;50.860;4.648;2024-03-07T08:21:28;24.90;;;9.45;;
9559;SDS011;4818;50.860;4.648;2024-03-07T08:23:54;34.38;;;11.05;;
9559;SDS011;4818;50.860;4.648;2024-03-07T08:26:20;36.55;;;9.38;;
9559;SDS011;4818;50.860;4.648;2024-03-07T08:28:46;28.67;;;9.35;;
9559;SDS011;4818;50.860;4.648;2024-03-07T08:31:13;22.85;;;8.90;;
9559;SDS011;4818;50.860;4.648;2024-03-07T08:33:39;26.00;;;9.27;;
9559;SDS011;4818;50.860;4.648;2024-03-07T08:36:05;23.08;;;8.63;;
9559;SDS011;4818;50.860;4.648;2024-03-07T08:38:35;24.48;;;8.32;;
9559;SDS011;4818;50.860;4.648;2024-03-07T08:41:02;23.13;;;9.52;;
9559;SDS011;4818;50.860;4.648;2024-03-07T08:43:28;27.85;;;9.93;;
9559;SDS011;4818;50.860;4.648;2024-03-07T08:45:54;22.48;;;8.63;;
9559;SDS011;4818;50.860;4.648;2024-03-07T08:48:20;37.28;;;9.50;;
9559;SDS011;4818;50.860;4.648;2024-03-07T08:50:47;31.10;;;11.15;;
9559;SDS011;4818;50.860;4.648;2024-03-07T08:53:16;28.95;;;9.38;;
9559;SDS011;4818;50.860;4.648;2024-03-07T08:55:43;25.33;;;8.27;;
9559;SDS011;4818;50.860;4.648;2024-03-07T08:58:09;24.90;;;9.82;;
9559;SDS011;4818;50.860;4.648;2024-03-07T09:00:36;28.98;;;9.82;;
9559;SDS011;4818;50.860;4.648;2024-03-07T09:03:02;24.27;;;8.70;;
9559;SDS011;4818;50.860;4.648;2024-03-07T09:05:29;27.98;;;10.55;;
9559;SDS011;4818;50.860;4.648;2024-03-07T09:07:58;28.05;;;9.70;;
9559;SDS011;4818;50.860;4.648;2024-03-07T09:10:24;18.95;;;7.50;;
9559;SDS011;4818;50.860;4.648;2024-03-07T09:12:51;25.35;;;9.25;;
9559;SDS011;4818;50.860;4.648;2024-03-07T09:15:19;22.85;;;10.15;;
9559;SDS011;4818;50.860;4.648;2024-03-07T09:17:46;25.92;;;9.45;;
9559;SDS011;4818;50.860;4.648;2024-03-07T09:20:13;26.90;;;9.70;;
9559;SDS011;4818;50.860;4.648;2024-03-07T09:22:44;22.95;;;9.65;;
9559;SDS011;4818;50.860;4.648;2024-03-07T09:25:11;24.85;;;9.18;;
9559;SDS011;4818;50.860;4.648;2024-03-07T09:27:38;25.27;;;9.27;;
9559;SDS011;4818;50.860;4.648;2024-03-07T09:30:08;28.88;;;9.27;;
9559;SDS011;4818;50.860;4.648;2024-03-07T09:32:40;23.17;;;8.98;;
9559;SDS011;4818;50.860;4.648;2024-03-07T09:35:07;29.33;;;11.45;;
9559;SDS011;4818;50.860;4.648;2024-03-07T09:37:36;21.02;;;8.60;;
9559;SDS011;4818;50.860;4.648;2024-03-07T09:40:03;21.23;;;7.40;;
9559;SDS011;4818;50.860;4.648;2024-03-07T09:42:29;22.30;;;9.35;;
9559;SDS011;4818;50.860;4.648;2024-03-07T09:44:57;21.42;;;8.35;;
9559;SDS011;4818;50.860;4.648;2024-03-07T09:47:24;20.80;;;10.02;;
9559;SDS011;4818;50.860;4.648;2024-03-07T09:49:51;19.52;;;8.90;;
9559;SDS011;4818;50.860;4.648;2024-03-07T09:52:18;18.67;;;8.48;;
9559;SDS011;4818;50.860;4.648;2024-03-07T09:54:45;16.88;;;7.93;;
9559;SDS011;4818;50.860;4.648;2024-03-07T09:57:12;18.90;;;9.43;;
9559;SDS011;4818;50.860;4.648;2024-03-07T09:59:39;17.35;;;7.93;;
9559;SDS011;4818;50.860;4.648;2024-03-07T10:07:06;16.17;;;8.55;;
9559;SDS011;4818;50.860;4.648;2024-03-07T10:09:36;15.07;;;7.63;;
9559;SDS011;4818;50.860;4.648;2024-03-07T10:12:05;14.98;;;6.93;;
9559;SDS011;4818;50.860;4.648;2024-03-07T10:14:34;16.38;;;7.70;;
9559;SDS011;4818;50.860;4.648;2024-03-07T10:17:02;15.27;;;7.25;;
9559;SDS011;4818;50.860;4.648;2024-03-07T10:19:28;18.33;;;8.15;;
9559;SDS011;4818;50.860;4.648;2024-03-07T10:21:55;14.35;;;6.82;;
9559;SDS011;4818;50.860;4.648;2024-03-07T10:24:27;17.35;;;8.35;;
9559;SDS011;4818;50.860;4.648;2024-03-07T10:26:53;13.43;;;6.90;;
9559;SDS011;4818;50.860;4.648;2024-03-07T10:29:23;17.85;;;7.85;;
9559;SDS011;4818;50.860;4.648;2024-03-07T10:31:50;12.55;;;6.80;;
9559;SDS011;4818;50.860;4.648;2024-03-07T10:34:16;13.13;;;6.30;;
9559;SDS011;4818;50.860;4.648;2024-03-07T10:36:43;14.98;;;6.75;;
9559;SDS011;4818;50.860;4.648;2024-03-07T10:39:09;10.70;;;6.45;;
9559;SDS011;4818;50.860;4.648;2024-03-07T10:41:47;14.80;;;7.22;;
9559;SDS011;4818;50.860;4.648;2024-03-07T10:44:18;14.20;;;6.78;;
9559;SDS011;4818;50.860;4.648;2024-03-07T10:46:51;14.57;;;6.57;;
9559;SDS011;4818;50.860;4.648;2024-03-07T10:49:20;13.15;;;5.95;;
9559;SDS011;4818;50.860;4.648;2024-03-07T10:52:10;16.02;;;6.90;;
9559;SDS011;4818;50.860;4.648;2024-03-07T10:57:23;15.07;;;7.05;;
9559;SDS011;4818;50.860;4.648;2024-03-07T11:00:03;12.85;;;6.55;;
9559;SDS011;4818;50.860;4.648;2024-03-07T11:02:51;12.75;;;6.15;;
9559;SDS011;4818;50.860;4.648;2024-03-07T11:05:19;10.70;;;6.03;;
9559;SDS011;4818;50.860;4.648;2024-03-07T11:10:15;13.30;;;6.95;;
9559;SDS011;4818;50.860;4.648;2024-03-07T11:12:42;17.13;;;7.55;;
9559;SDS011;4818;50.860;4.648;2024-03-07T11:15:10;19.60;;;7.20;;
9559;SDS011;4818;50.860;4.648;2024-03-07T11:17:42;20.58;;;7.47;;
9559;SDS011;4818;50.860;4.648;2024-03-07T11:20:36;14.77;;;6.10;;
9559;SDS011;4818;50.860;4.648;2024-03-07T11:23:45;17.98;;;6.72;;
9559;SDS011;4818;50.860;4.648;2024-03-07T11:26:01;13.23;;;5.82;;
9559;SDS011;4818;50.860;4.648;2024-03-07T11:28:28;14.02;;;6.32;;
9559;SDS011;4818;50.860;4.648;2024-03-07T11:31:06;16.73;;;7.47;;
9559;SDS011;4818;50.860;4.648;2024-03-07T11:33:34;15.82;;;6.15;;
9559;SDS011;4818;50.860;4.648;2024-03-07T11:36:00;16.05;;;6.60;;
9559;SDS011;4818;50.860;4.648;2024-03-07T11:38:32;16.65;;;7.45;;
9559;SDS011;4818;50.860;4.648;2024-03-07T11:41:00;14.80;;;7.47;;
9559;SDS011;4818;50.860;4.648;2024-03-07T11:43:27;21.85;;;7.68;;
9559;SDS011;4818;50.860;4.648;2024-03-07T11:45:53;14.30;;;6.47;;
9559;SDS011;4818;50.860;4.648;2024-03-07T11:48:22;14.68;;;5.88;;
9559;SDS011;4818;50.860;4.648;2024-03-07T11:50:49;20.60;;;6.53;;
9559;SDS011;4818;50.860;4.648;2024-03-07T11:53:16;15.10;;;6.43;;
9559;SDS011;4818;50.860;4.648;2024-03-07T11:55:44;13.63;;;5.80;;
9559;SDS011;4818;50.860;4.648;2024-03-07T11:58:17;11.07;;;5.50;;
9559;SDS011;4818;50.860;4.648;2024-03-07T12:00:46;14.35;;;6.00;;
9559;SDS011;4818;50.860;4.648;2024-03-07T12:05:44;19.65;;;7.70;;
9559;SDS011;4818;50.860;4.648;2024-03-07T12:08:10;15.07;;;5.78;;
9559;SDS011;4818;50.860;4.648;2024-03-07T12:10:38;16.92;;;6.65;;
9559;SDS011;4818;50.860;4.648;2024-03-07T12:13:05;16.33;;;7.20;;
9559;SDS011;4818;50.860;4.648;2024-03-07T12:15:31;12.82;;;6.53;;
9559;SDS011;4818;50.860;4.648;2024-03-07T12:17:58;14.48;;;5.85;;
9559;SDS011;4818;50.860;4.648;2024-03-07T12:20:27;13.60;;;6.38;;
9559;SDS011;4818;50.860;4.648;2024-03-07T12:23:04;15.25;;;6.38;;
9559;SDS011;4818;50.860;4.648;2024-03-07T12:25:34;14.82;;;6.30;;
9559;SDS011;4818;50.860;4.648;2024-03-07T12:28:11;12.50;;;6.65;;
9559;SDS011;4818;50.860;4.648;2024-03-07T12:30:47;13.00;;;6.50;;
9559;SDS011;4818;50.860;4.648;2024-03-07T12:33:17;14.30;;;7.43;;
9559;SDS011;4818;50.860;4.648;2024-03-07T12:35:44;16.30;;;6.07;;
9559;SDS011;4818;50.860;4.648;2024-03-07T12:38:11;12.80;;;6.18;;
9559;SDS011;4818;50.860;4.648;2024-03-07T12:40:40;16.08;;;6.20;;
9559;SDS011;4818;50.860;4.648;2024-03-07T12:43:19;13.95;;;5.82;;
9559;SDS011;4818;50.860;4.648;2024-03-07T12:45:49;15.30;;;6.43;;
9559;SDS011;4818;50.860;4.648;2024-03-07T12:48:19;14.20;;;6.43;;
9559;SDS011;4818;50.860;4.648;2024-03-07T12:50:46;13.40;;;6.60;;
9559;SDS011;4818;50.860;4.648;2024-03-07T12:53:19;12.52;;;5.90;;
9559;SDS011;4818;50.860;4.648;2024-03-07T12:55:46;16.17;;;7.88;;
9559;SDS011;4818;50.860;4.648;2024-03-07T12:58:13;16.92;;;6.80;;
9559;SDS011;4818;50.860;4.648;2024-03-07T13:00:40;18.30;;;7.18;;
9559;SDS011;4818;50.860;4.648;2024-03-07T13:03:06;14.27;;;7.28;;
9559;SDS011;4818;50.860;4.648;2024-03-07T13:05:34;13.65;;;6.57;;
9559;SDS011;4818;50.860;4.648;2024-03-07T13:08:02;13.32;;;5.15;;
9559;SDS011;4818;50.860;4.648;2024-03-07T13:10:28;16.95;;;6.85;;
9559;SDS011;4818;50.860;4.648;2024-03-07T13:12:54;15.80;;;6.85;;
9559;SDS011;4818;50.860;4.648;2024-03-07T13:15:20;11.32;;;5.22;;
9559;SDS011;4818;50.860;4.648;2024-03-07T13:17:49;14.85;;;5.65;;
9559;SDS011;4818;50.860;4.648;2024-03-07T13:20:18;13.15;;;6.00;;
9559;SDS011;4818;50.860;4.648;2024-03-07T13:22:47;11.65;;;5.72;;
9559;SDS011;4818;50.860;4.648;2024-03-07T13:25:17;13.93;;;6.05;;
9559;SDS011;4818;50.860;4.648;2024-03-07T13:28:18;9.63;;;4.18;;
9559;SDS011;4818;50.860;4.648;2024-03-07T13:30:41;13.50;;;5.70;;
9559;SDS011;4818;50.860;4.648;2024-03-07T13:33:08;12.73;;;5.28;;
9559;SDS011;4818;50.860;4.648;2024-03-07T13:35:37;10.38;;;4.50;;
9559;SDS011;4818;50.860;4.648;2024-03-07T13:38:03;12.80;;;5.55;;
9559;SDS011;4818;50.860;4.648;2024-03-07T13:40:30;10.60;;;4.22;;
9559;SDS011;4818;50.860;4.648;2024-03-07T13:42:59;8.52;;;4.00;;
9559;SDS011;4818;50.860;4.648;2024-03-07T13:45:30;10.25;;;4.57;;
9559;SDS011;4818;50.860;4.648;2024-03-07T13:47:56;12.35;;;4.68;;
9559;SDS011;4818;50.860;4.648;2024-03-07T13:50:24;11.30;;;4.30;;
9559;SDS011;4818;50.860;4.648;2024-03-07T13:52:51;9.65;;;4.75;;
9559;SDS011;4818;50.860;4.648;2024-03-07T14:06:25;11.10;;;4.55;;
9559;SDS011;4818;50.860;4.648;2024-03-07T14:09:07;12.00;;;4.95;;
9559;SDS011;4818;50.860;4.648;2024-03-07T14:17:12;10.95;;;4.13;;
9559;SDS011;4818;50.860;4.648;2024-03-07T14:20:07;12.50;;;4.47;;
9559;SDS011;4818;50.860;4.648;2024-03-07T14:23:01;7.65;;;4.10;;
9559;SDS011;4818;50.860;4.648;2024-03-07T14:31:05;12.00;;;5.05;;
9559;SDS011;4818;50.860;4.648;2024-03-07T14:36:38;8.13;;;3.47;;
9559;SDS011;4818;50.860;4.648;2024-03-07T14:39:06;8.73;;;3.92;;
9559;SDS011;4818;50.860;4.648;2024-03-07T14:44:13;9.05;;;3.92;;
9559;SDS011;4818;50.860;4.648;2024-03-07T14:46:40;9.73;;;4.15;;
9559;SDS011;4818;50.860;4.648;2024-03-07T14:49:06;11.98;;;4.25;;
9559;SDS011;4818;50.860;4.648;2024-03-07T14:51:33;9.68;;;4.22;;
9559;SDS011;4818;50.860;4.648;2024-03-07T14:53:59;10.20;;;3.35;;
9559;SDS011;4818;50.860;4.648;2024-03-07T14:56:28;13.00;;;6.05;;
9559;SDS011;4818;50.860;4.648;2024-03-07T14:58:54;8.45;;;4.45;;
9559;SDS011;4818;50.860;4.648;2024-03-07T15:01:20;7.13;;;3.08;;
9559;SDS011;4818;50.860;4.648;2024-03-07T15:03:46;9.75;;;3.88;;
9559;SDS011;4818;50.860;4.648;2024-03-07T15:06:14;12.30;;;4.22;;
9559;SDS011;4818;50.860;4.648;2024-03-07T15:08:40;7.50;;;3.80;;
9559;SDS011;4818;50.860;4.648;2024-03-07T15:11:26;10.50;;;4.40;;
9559;SDS011;4818;50.860;4.648;2024-03-07T15:13:54;10.15;;;4.03;;
9559;SDS011;4818;50.860;4.648;2024-03-07T15:16:20;9.90;;;4.55;;
9559;SDS011;4818;50.860;4.648;2024-03-07T15:18:49;11.13;;;5.03;;
9559;SDS011;4818;50.860;4.648;2024-03-07T15:21:15;10.55;;;4.28;;
9559;SDS011;4818;50.860;4.648;2024-03-07T15:23:42;14.07;;;4.00;;
9559;SDS011;4818;50.860;4.648;2024-03-07T15:26:10;11.35;;;4.55;;
9559;SDS011;4818;50.860;4.648;2024-03-07T15:28:37;14.77;;;4.43;;
9559;SDS011;4818;50.860;4.648;2024-03-07T15:31:03;11.13;;;3.53;;
9559;SDS011;4818;50.860;4.648;2024-03-07T15:33:32;8.32;;;3.67;;
9559;SDS011;4818;50.860;4.648;2024-03-07T15:35:59;9.48;;;3.35;;
9559;SDS011;4818;50.860;4.648;2024-03-07T15:38:25;10.30;;;3.70;;
9559;SDS011;4818;50.860;4.648;2024-03-07T15:41:00;9.00;;;3.28;;
9559;SDS011;4818;50.860;4.648;2024-03-07T15:43:27;10.48;;;3.58;;
9559;SDS011;4818;50.860;4.648;2024-03-07T15:45:54;8.13;;;3.10;;
9559;SDS011;4818;50.860;4.648;2024-03-07T15:48:24;11.80;;;3.45;;
9559;SDS011;4818;50.860;4.648;2024-03-07T15:50:51;7.00;;;3.22;;